Time;durP1;ratioP1;P1;durP2;ratioP2;P2;SDS_P1;SDS_P2;PMS_P1;PMS_P2;Temp;Humidity;BMP_temperature;BMP_pressure;BME280_temperature;BME280_humidity;BME280_pressure;Samples;Min_cycle;Max_cycle;Signal;HPM_P1;HPM_P2
2022/09/10 00:00:08;;;;;;;;;1.50;1.00;;;;;;;;6353155;22;8842;-96
2022/09/10 00:02:35;;;;;;;;;2.00;1.75;;;;;;;;6352288;22;8746;-95
2022/09/10 00:05:03;;;;;;;;;3.75;2.00;;;;;;;;6352593;22;8754;-95
2022/09/10 00:07:30;;;;;;;;;1.50;1.50;;;;;;;;6352897;22;8762;-94
2022/09/10 00:10:01;;;;;;;;;2.75;2.00;;;;;;;;6357570;22;8734;-95
2022/09/10 00:12:30;;;;;;;;;2.00;2.00;;;;;;;;6385344;22;9671;-95
2022/09/10 00:14:55;;;;;;;;;1.00;1.00;;;;;;;;6385740;22;8730;-95
2022/09/10 00:17:20;;;;;;;;;2.00;2.00;;;;;;;;6384960;22;8757;-94
2022/09/10 00:19:46;;;;;;;;;4.00;2.00;;;;;;;;6385672;22;8838;-95
2022/09/10 00:22:14;;;;;;;;;1.00;1.00;;;;;;;;6385839;22;8769;-95
2022/09/10 00:25:03;;;;;;;;;1.00;1.00;;;;;;;;6385734;22;8759;-96
2022/09/10 00:27:43;;;;;;;;;;;;;;;;;;;;;
2022/09/10 00:30:25;;;;;;;;;0.25;0.25;;;;;;;;6412591;22;36100;-95
2022/09/10 00:32:53;;;;;;;;;3.00;2.00;;;;;;;;6385133;22;9637;-95
2022/09/10 00:35:39;;;;;;;;;2.00;2.00;;;;;;;;6384729;22;8831;-95
2022/09/10 00:38:14;;;;;;;;;3.25;1.25;;;;;;;;6385386;22;8741;-96
2022/09/10 00:41:00;;;;;;;;;2.75;1.25;;;;;;;;6384876;22;8750;-96
2022/09/10 00:43:33;;;;;;;;;2.25;2.00;;;;;;;;6385151;22;8738;-95
2022/09/10 00:48:55;;;;;;;;;1.25;1.25;;;;;;;;6315882;22;8727;-94
2022/09/10 00:51:23;;;;;;;;;3.00;3.00;;;;;;;;6315816;22;8782;-94
2022/09/10 00:53:51;;;;;;;;;2.00;2.00;;;;;;;;6289723;22;8696;-95
2022/09/10 00:56:17;;;;;;;;;2.75;2.50;;;;;;;;6289496;22;8731;-94
2022/09/10 00:58:43;;;;;;;;;1.00;1.00;;;;;;;;6315160;22;8767;-93
2022/09/10 01:01:08;;;;;;;;;1.00;1.00;;;;;;;;6289251;22;8751;-96
2022/09/10 01:03:33;;;;;;;;;1.33;1.00;;;;;;;;6290460;22;9588;-95
2022/09/10 01:06:04;;;;;;;;;3.67;3.00;;;;;;;;6289487;22;8782;-94
2022/09/10 01:08:30;;;;;;;;;2.75;2.00;;;;;;;;6292072;22;8752;-94
2022/09/10 01:11:15;;;;;;;;;4.00;2.33;;;;;;;;6299415;22;8900;-96
2022/09/10 01:14:14;;;;;;;;;2.00;1.50;;;;;;;;6299952;22;8704;-95
2022/09/10 01:16:39;;;;;;;;;2.00;1.00;;;;;;;;6300020;22;8743;-95
2022/09/10 01:19:23;;;;;;;;;3.33;2.00;;;;;;;;6325494;22;8822;-94
2022/09/10 01:22:10;;;;;;;;;1.50;1.00;;;;;;;;6325168;22;8778;-95
2022/09/10 01:24:47;;;;;;;;;3.00;3.00;;;;;;;;6324489;22;9049;-95
2022/09/10 01:27:36;;;;;;;;;2.25;2.25;;;;;;;;6381503;22;8662;-94
2022/09/10 01:30:16;;;;;;;;;3.00;1.25;;;;;;;;6390988;22;8710;-95
2022/09/10 01:33:02;;;;;;;;;1.75;1.00;;;;;;;;6386215;22;8742;-95
2022/09/10 01:35:56;;;;;;;;;2.00;1.25;;;;;;;;6386353;22;8738;-96
2022/09/10 01:38:34;;;;;;;;;3.00;3.00;;;;;;;;6383414;22;8747;-94
2022/09/10 01:41:05;;;;;;;;;2.75;1.50;;;;;;;;6385781;22;8780;-95
2022/09/10 01:43:30;;;;;;;;;1.00;1.00;;;;;;;;6385725;22;8756;-95
2022/09/10 01:46:02;;;;;;;;;4.00;1.67;;;;;;;;6385965;22;8750;-96
2022/09/10 01:48:48;;;;;;;;;4.00;2.00;;;;;;;;6386406;22;8749;-95
2022/09/10 01:51:19;;;;;;;;;2.50;1.75;;;;;;;;6386092;22;8839;-95
2022/09/10 01:54:05;;;;;;;;;4.50;3.00;;;;;;;;6386147;22;8737;-94
2022/09/10 01:56:51;;;;;;;;;2.25;2.00;;;;;;;;6385599;22;8757;-96
2022/09/10 01:59:35;;;;;;;;;2.00;2.00;;;;;;;;6386231;22;8802;-95
2022/09/10 02:02:03;;;;;;;;;3.75;2.75;;;;;;;;6386116;22;8682;-96
2022/09/10 02:04:54;;;;;;;;;3.50;2.50;;;;;;;;6386479;22;8737;-95
2022/09/10 02:07:30;;;;;;;;;1.50;1.50;;;;;;;;6386119;22;8702;-95
2022/09/10 02:10:05;;;;;;;;;2.50;1.25;;;;;;;;6386069;22;8722;-94
2022/09/10 02:12:30;;;;;;;;;1.75;1.75;;;;;;;;6385478;22;8737;-95
2022/09/10 02:14:58;;;;;;;;;3.00;3.00;;;;;;;;6386299;22;8761;-95
2022/09/10 02:17:27;;;;;;;;;3.00;2.00;;;;;;;;6386095;22;8738;-93
2022/09/10 02:20:02;;;;;;;;;1.00;1.00;;;;;;;;6386456;22;8746;-95
2022/09/10 02:22:29;;;;;;;;;6.00;1.25;;;;;;;;6384612;22;8768;-94
2022/09/10 02:25:10;;;;;;;;;1.25;1.25;;;;;;;;6386253;22;8753;-94
2022/09/10 02:27:38;;;;;;;;;2.75;1.75;;;;;;;;6385162;22;8745;-96
2022/09/10 02:30:05;;;;;;;;;3.00;2.50;;;;;;;;6385636;22;8849;-95
2022/09/10 02:32:54;;;;;;;;;1.75;1.00;;;;;;;;6386149;22;8746;-95
2022/09/10 02:35:49;;;;;;;;;;;;;;;;;;;;;
2022/09/10 02:38:17;;;;;;;;;1.00;1.00;;;;;;;;6412819;22;35812;-96
2022/09/10 02:41:20;;;;;;;;;3.25;2.00;;;;;;;;6385564;22;8772;-96
2022/09/10 02:43:51;;;;;;;;;2.00;1.75;;;;;;;;6385632;22;8682;-95
2022/09/10 02:46:41;;;;;;;;;2.00;2.00;;;;;;;;6395318;22;8737;-95
2022/09/10 02:49:09;;;;;;;;;2.75;2.75;;;;;;;;6395833;22;8679;-95
2022/09/10 02:51:43;;;;;;;;;1.00;1.00;;;;;;;;6424570;22;8737;-95
2022/09/10 02:54:08;;;;;;;;;2.75;2.00;;;;;;;;6394994;22;8743;-95
2022/09/10 02:56:33;;;;;;;;;1.00;1.00;;;;;;;;6395087;22;8758;-94
2022/09/10 02:59:06;;;;;;;;;1.33;1.33;;;;;;;;6395514;22;8773;-95
2022/09/10 03:02:03;;;;;;;;;;;;;;;;;;;;;
2022/09/10 03:04:51;;;;;;;;;3.75;2.50;;;;;;;;6404456;22;36186;-95
2022/09/10 03:07:19;;;;;;;;;2.50;1.50;;;;;;;;6385538;22;8880;-94
2022/09/10 03:09:47;;;;;;;;;4.00;2.25;;;;;;;;6413982;22;8745;-96
2022/09/10 03:12:15;;;;;;;;;2.25;2.25;;;;;;;;6385200;22;8750;-95
2022/09/10 03:14:43;;;;;;;;;1.00;1.00;;;;;;;;6386163;22;8807;-96
2022/09/10 03:17:37;;;;;;;;;1.75;1.50;;;;;;;;6385524;22;8734;-95
2022/09/10 03:20:10;;;;;;;;;1.00;1.00;;;;;;;;6385946;22;8757;-95
2022/09/10 03:25:51;;;;;;;;;3.00;1.00;;;;;;;;6399828;22;8798;-96
2022/09/10 03:28:16;;;;;;;;;2.50;2.50;;;;;;;;6385166;22;8738;-95
2022/09/10 03:30:45;;;;;;;;;4.67;2.00;;;;;;;;6385621;22;8766;-95
2022/09/10 03:33:30;;;;;;;;;4.50;2.00;;;;;;;;6385792;22;8772;-96
2022/09/10 03:36:05;;;;;;;;;1.00;1.00;;;;;;;;6385239;22;8756;-96
2022/09/10 03:39:02;;;;;;;;;3.50;1.25;;;;;;;;6381496;22;8836;-96
2022/09/10 03:41:30;;;;;;;;;1.75;1.00;;;;;;;;6285221;22;8742;-94
2022/09/10 03:44:05;;;;;;;;;3.25;2.50;;;;;;;;6259283;22;8683;-95
2022/09/10 03:46:33;;;;;;;;;2.75;2.25;;;;;;;;6259829;22;8844;-94
2022/09/10 03:49:04;;;;;;;;;2.00;2.00;;;;;;;;6259638;22;8750;-95
2022/09/10 03:51:49;;;;;;;;;;;;;;;;;;;;;
2022/09/10 03:54:20;;;;;;;;;3.00;3.00;;;;;;;;6283599;22;35980;-95
2022/09/10 03:57:12;;;;;;;;;1.75;1.75;;;;;;;;6258657;22;8690;-95
2022/09/10 03:59:52;;;;;;;;;2.50;2.50;;;;;;;;6259775;22;9862;-95
2022/09/10 04:02:40;;;;;;;;;2.50;2.50;;;;;;;;6259379;22;8758;-95
2022/09/10 04:05:26;;;;;;;;;2.50;2.00;;;;;;;;6285179;22;8773;-95
2022/09/10 04:08:00;;;;;;;;;3.50;2.50;;;;;;;;6284507;22;8856;-95
2022/09/10 04:10:31;;;;;;;;;2.25;2.00;;;;;;;;6259498;22;8702;-95
2022/09/10 04:12:57;;;;;;;;;1.00;1.00;;;;;;;;6259595;22;8750;-92
2022/09/10 04:15:24;;;;;;;;;2.00;2.00;;;;;;;;6260842;22;8796;-95
2022/09/10 04:18:00;;;;;;;;;2.00;1.50;;;;;;;;6371051;22;8910;-95
2022/09/10 04:20:43;;;;;;;;;2.00;2.00;;;;;;;;6395871;22;8819;-94
2022/09/10 04:23:10;;;;;;;;;2.00;2.00;;;;;;;;6394804;22;8824;-94
2022/09/10 04:25:36;;;;;;;;;3.00;3.00;;;;;;;;6423749;22;8722;-95
2022/09/10 04:28:23;;;;;;;;;1.33;1.00;;;;;;;;6394408;22;8750;-93
2022/09/10 04:30:49;;;;;;;;;1.25;1.00;;;;;;;;6394791;22;8694;-93
2022/09/10 04:33:23;;;;;;;;;2.00;1.00;;;;;;;;6398907;22;8671;-94
2022/09/10 04:35:49;;;;;;;;;2.75;1.50;;;;;;;;6395285;22;11330;-94
2022/09/10 04:38:17;;;;;;;;;1.00;1.00;;;;;;;;6420420;22;8734;-94
2022/09/10 04:40:43;;;;;;;;;1.00;1.00;;;;;;;;6386856;22;8741;-93
2022/09/10 04:43:16;;;;;;;;;4.00;2.00;;;;;;;;6386331;22;8682;-94
2022/09/10 04:45:42;;;;;;;;;2.75;1.00;;;;;;;;6383285;22;8810;-93
2022/09/10 04:48:07;;;;;;;;;3.50;2.00;;;;;;;;6414925;22;8658;-93
2022/09/10 04:50:41;;;;;;;;;1.67;1.00;;;;;;;;6385426;22;8769;-94
2022/09/10 04:53:16;;;;;;;;;2.50;2.00;;;;;;;;6385273;22;8741;-94
2022/09/10 04:55:42;;;;;;;;;3.00;2.00;;;;;;;;6385517;22;8820;-92
2022/09/10 04:58:21;;;;;;;;;1.00;1.00;;;;;;;;6385261;22;8840;-94
2022/09/10 05:01:09;;;;;;;;;2.25;2.00;;;;;;;;6385468;22;8725;-94
2022/09/10 05:03:43;;;;;;;;;1.50;1.25;;;;;;;;6385407;22;8823;-94
2022/09/10 05:06:11;;;;;;;;;3.00;2.50;;;;;;;;6385054;22;8754;-93
2022/09/10 05:08:39;;;;;;;;;3.00;2.00;;;;;;;;6385524;22;8754;-94
2022/09/10 05:11:13;;;;;;;;;1.25;1.25;;;;;;;;6385570;22;8776;-94
2022/09/10 05:13:38;;;;;;;;;3.00;1.25;;;;;;;;6385184;22;8820;-94
2022/09/10 05:16:24;;;;;;;;;3.00;1.67;;;;;;;;6385850;22;8726;-95
2022/09/10 05:19:16;;;;;;;;;2.75;2.25;;;;;;;;6357492;22;8734;-95
2022/09/10 05:21:55;;;;;;;;;2.00;2.00;;;;;;;;6410828;22;8738;-94
2022/09/10 05:24:49;;;;;;;;;2.00;2.00;;;;;;;;6385650;22;8670;-94
2022/09/10 05:27:27;;;;;;;;;1.50;1.00;;;;;;;;6384860;22;8734;-94
2022/09/10 05:30:02;;;;;;;;;1.75;1.75;;;;;;;;6384636;22;8730;-94
2022/09/10 05:32:53;;;;;;;;;3.00;1.75;;;;;;;;6378993;22;8734;-94
2022/09/10 05:35:29;;;;;;;;;2.00;2.00;;;;;;;;6411076;22;8740;-94
2022/09/10 05:38:11;;;;;;;;;1.00;1.00;;;;;;;;6383951;22;8741;-94
2022/09/10 05:40:36;;;;;;;;;1.25;1.25;;;;;;;;6384841;22;8768;-94
2022/09/10 05:43:07;;;;;;;;;2.00;2.00;;;;;;;;6385565;22;9562;-95
2022/09/10 05:45:32;;;;;;;;;3.00;3.00;;;;;;;;6385573;22;8812;-95
2022/09/10 05:47:58;;;;;;;;;2.33;1.00;;;;;;;;6385456;22;8745;-95
2022/09/10 05:50:24;;;;;;;;;2.00;2.00;;;;;;;;6387943;22;8850;-93
2022/09/10 05:52:51;;;;;;;;;2.67;2.00;;;;;;;;6394633;22;11385;-94
2022/09/10 05:55:19;;;;;;;;;2.00;2.00;;;;;;;;6394488;22;8670;-94
2022/09/10 05:57:55;;;;;;;;;3.00;3.00;;;;;;;;6388982;22;8670;-94
2022/09/10 06:00:37;;;;;;;;;2.00;1.00;;;;;;;;6395913;22;8662;-95
2022/09/10 06:03:03;;;;;;;;;3.50;2.00;;;;;;;;6395339;22;8750;-94
2022/09/10 06:05:31;;;;;;;;;3.00;2.00;;;;;;;;6394265;22;8666;-94
2022/09/10 06:08:20;;;;;;;;;1.25;1.25;;;;;;;;6394732;22;8826;-95
2022/09/10 06:10:59;;;;;;;;;4.00;2.00;;;;;;;;6379889;22;8764;-94
2022/09/10 06:13:29;;;;;;;;;3.75;2.50;;;;;;;;6386002;22;8673;-95
2022/09/10 06:16:07;;;;;;;;;3.00;3.00;;;;;;;;6385679;22;8840;-95
2022/09/10 06:18:32;;;;;;;;;3.00;2.50;;;;;;;;6385774;22;8817;-94
2022/09/10 06:21:23;;;;;;;;;1.67;1.67;;;;;;;;6386469;22;8811;-95
2022/09/10 06:23:51;;;;;;;;;2.50;2.50;;;;;;;;6374410;22;8821;-94
2022/09/10 06:26:26;;;;;;;;;1.00;1.00;;;;;;;;6387276;22;8730;-95
2022/09/10 06:28:52;;;;;;;;;1.00;1.00;;;;;;;;6385797;22;8730;-94
2022/09/10 06:31:26;;;;;;;;;2.00;2.00;;;;;;;;6386181;22;8777;-94
2022/09/10 06:33:52;;;;;;;;;2.75;1.75;;;;;;;;6385320;22;8722;-92
2022/09/10 06:36:18;;;;;;;;;3.00;1.00;;;;;;;;6384523;22;8733;-89
2022/09/10 06:38:43;;;;;;;;;2.00;1.00;;;;;;;;6412043;22;8754;-90
2022/09/10 06:41:12;;;;;;;;;1.33;1.33;;;;;;;;6413568;22;8734;-93
2022/09/10 06:43:40;;;;;;;;;2.75;1.75;;;;;;;;6383197;22;8738;-89
2022/09/10 06:46:16;;;;;;;;;4.50;2.00;;;;;;;;6383630;22;8726;-89
2022/09/10 06:48:41;;;;;;;;;2.00;1.50;;;;;;;;6412049;22;8798;-89
2022/09/10 06:51:07;;;;;;;;;1.00;1.00;;;;;;;;6412773;22;8777;-89
2022/09/10 06:53:32;;;;;;;;;2.00;2.00;;;;;;;;6384089;22;8738;-88
2022/09/10 06:55:59;;;;;;;;;2.00;2.00;;;;;;;;6383115;22;8810;-89
2022/09/10 06:58:24;;;;;;;;;2.00;2.00;;;;;;;;6411589;22;8698;-88
2022/09/10 07:00:49;;;;;;;;;2.33;2.00;;;;;;;;6383995;22;8745;-89
2022/09/10 07:03:16;;;;;;;;;0.67;0.67;;;;;;;;6415729;22;8717;-93
2022/09/10 07:05:41;;;;;;;;;2.00;2.00;;;;;;;;6388513;22;8729;-95
2022/09/10 07:08:07;;;;;;;;;3.00;2.00;;;;;;;;6417528;22;8745;-95
2022/09/10 07:10:32;;;;;;;;;1.67;1.67;;;;;;;;6413543;22;8800;-91
2022/09/10 07:12:59;;;;;;;;;3.00;2.00;;;;;;;;6413488;22;8729;-92
2022/09/10 07:15:25;;;;;;;;;3.75;1.75;;;;;;;;6383793;22;8722;-90
2022/09/10 07:17:50;;;;;;;;;1.67;1.00;;;;;;;;6411926;22;8729;-87
2022/09/10 07:20:15;;;;;;;;;4.00;2.33;;;;;;;;6410672;22;8788;-83
2022/09/10 07:22:42;;;;;;;;;3.00;2.00;;;;;;;;6412163;22;8754;-83
2022/09/10 07:25:07;;;;;;;;;1.50;1.50;;;;;;;;6413046;22;8815;-83
2022/09/10 07:27:33;;;;;;;;;1.33;1.00;;;;;;;;6383232;22;8753;-84
2022/09/10 07:29:58;;;;;;;;;2.00;2.00;;;;;;;;6384696;22;9561;-83
2022/09/10 07:32:23;;;;;;;;;2.00;2.00;;;;;;;;6414437;22;8730;-86
2022/09/10 07:34:48;;;;;;;;;2.33;2.33;;;;;;;;6387213;22;8835;-82
2022/09/10 07:37:14;;;;;;;;;3.00;2.00;;;;;;;;6387534;22;8754;-83
2022/09/10 07:39:40;;;;;;;;;3.00;1.50;;;;;;;;6387730;22;8737;-83
2022/09/10 07:42:05;;;;;;;;;2.00;2.00;;;;;;;;6386137;22;8749;-83
2022/09/10 07:44:30;;;;;;;;;1.00;1.00;;;;;;;;6412159;22;8758;-87
2022/09/10 07:46:55;;;;;;;;;3.00;1.00;;;;;;;;6382664;22;8761;-85
2022/09/10 07:49:21;;;;;;;;;3.33;3.00;;;;;;;;6383495;22;8788;-85
2022/09/10 07:51:46;;;;;;;;;4.00;2.00;;;;;;;;6412253;22;8795;-85
2022/09/10 07:54:14;;;;;;;;;2.00;2.00;;;;;;;;6413036;22;8746;-85
2022/09/10 07:56:39;;;;;;;;;1.00;1.00;;;;;;;;6388390;22;8797;-85
2022/09/10 07:59:04;;;;;;;;;1.67;1.67;;;;;;;;6411534;22;8855;-85
2022/09/10 08:01:30;;;;;;;;;2.33;1.00;;;;;;;;6411705;22;8757;-85
2022/09/10 08:03:57;;;;;;;;;3.00;1.00;;;;;;;;6383538;22;8785;-85
2022/09/10 08:06:22;;;;;;;;;3.25;1.75;;;;;;;;6383418;22;8861;-85
2022/09/10 08:08:48;;;;;;;;;1.33;1.33;;;;;;;;6412252;22;8741;-85
2022/09/10 08:11:16;;;;;;;;;2.33;2.33;;;;;;;;6382831;22;8785;-85
2022/09/10 08:13:44;;;;;;;;;2.25;2.00;;;;;;;;6382817;22;8783;-85
2022/09/10 08:16:11;;;;;;;;;2.75;1.75;;;;;;;;6411841;22;8730;-85
2022/09/10 08:18:36;;;;;;;;;2.00;1.75;;;;;;;;6412386;22;8730;-84
2022/09/10 08:21:02;;;;;;;;;4.67;2.00;;;;;;;;6382053;22;8819;-84
2022/09/10 08:23:28;;;;;;;;;1.75;1.75;;;;;;;;6383215;22;8718;-85
2022/09/10 08:25:53;;;;;;;;;3.00;1.00;;;;;;;;6382882;22;8762;-85
2022/09/10 08:28:20;;;;;;;;;1.67;1.67;;;;;;;;6411298;22;8738;-85
2022/09/10 08:30:55;;;;;;;;;1.75;1.25;;;;;;;;6382581;22;8782;-85
2022/09/10 08:33:21;;;;;;;;;3.00;3.00;;;;;;;;6383383;22;8741;-84
2022/09/10 08:35:50;;;;;;;;;3.00;2.67;;;;;;;;6411888;22;8725;-85
2022/09/10 08:38:16;;;;;;;;;1.75;1.75;;;;;;;;6411968;22;8765;-84
2022/09/10 08:40:41;;;;;;;;;1.00;1.00;;;;;;;;6411146;22;8780;-84
2022/09/10 08:43:07;;;;;;;;;3.00;3.00;;;;;;;;6411036;22;8797;-85
2022/09/10 08:45:32;;;;;;;;;3.33;3.00;;;;;;;;6381974;22;8742;-85
2022/09/10 08:48:05;;;;;;;;;3.67;3.00;;;;;;;;6411794;22;8772;-85
2022/09/10 08:50:40;;;;;;;;;2.75;2.50;;;;;;;;6382638;22;8746;-85
2022/09/10 08:53:17;;;;;;;;;1.00;1.00;;;;;;;;6383378;22;9375;-86
2022/09/10 08:55:43;;;;;;;;;2.25;1.75;;;;;;;;6383786;22;8722;-85
2022/09/10 08:58:13;;;;;;;;;1.67;1.67;;;;;;;;6384243;22;8853;-84
2022/09/10 09:00:39;;;;;;;;;1.00;0.00;;;;;;;;6413289;22;8726;-85
2022/09/10 09:03:15;;;;;;;;;1.00;1.00;;;;;;;;6384307;22;8710;-85
2022/09/10 09:05:46;;;;;;;;;3.00;1.50;;;;;;;;6412143;22;8730;-85
2022/09/10 09:08:12;;;;;;;;;2.25;1.75;;;;;;;;6389761;22;8670;-84
2022/09/10 09:10:48;;;;;;;;;4.50;2.25;;;;;;;;6389654;22;8749;-84
2022/09/10 09:13:25;;;;;;;;;1.00;1.00;;;;;;;;6389347;22;8752;-85
2022/09/10 09:15:56;;;;;;;;;1.75;1.75;;;;;;;;6389268;22;8729;-83
2022/09/10 09:18:27;;;;;;;;;1.50;1.00;;;;;;;;6412027;22;8918;-85
2022/09/10 09:20:56;;;;;;;;;1.50;1.50;;;;;;;;6382902;22;9494;-84
2022/09/10 09:23:24;;;;;;;;;2.25;2.25;;;;;;;;6411034;22;8780;-84
2022/09/10 09:25:55;;;;;;;;;2.00;2.00;;;;;;;;6403750;22;8733;-83
2022/09/10 09:28:32;;;;;;;;;3.00;3.00;;;;;;;;6410695;22;8706;-84
2022/09/10 09:30:59;;;;;;;;;2.25;2.00;;;;;;;;6410889;22;8826;-84
2022/09/10 09:33:28;;;;;;;;;2.75;1.50;;;;;;;;6383345;22;8718;-84
2022/09/10 09:36:00;;;;;;;;;2.25;1.75;;;;;;;;6381470;22;8733;-83
2022/09/10 09:38:37;;;;;;;;;1.75;1.75;;;;;;;;6381832;22;8741;-84
2022/09/10 09:41:21;;;;;;;;;3.75;2.75;;;;;;;;6409860;22;8746;-85
2022/09/10 09:44:02;;;;;;;;;3.00;3.00;;;;;;;;6410606;22;8714;-84
2022/09/10 09:46:27;;;;;;;;;3.00;3.00;;;;;;;;6411260;22;8726;-84
2022/09/10 09:48:58;;;;;;;;;1.00;1.00;;;;;;;;6411259;22;9550;-84
2022/09/10 09:51:24;;;;;;;;;5.00;2.50;;;;;;;;6411449;22;8753;-83
2022/09/10 09:53:52;;;;;;;;;3.75;3.00;;;;;;;;6382855;22;8742;-83
2022/09/10 09:56:21;;;;;;;;;2.50;2.50;;;;;;;;6410780;22;8714;-84
2022/09/10 09:58:48;;;;;;;;;2.50;2.50;;;;;;;;6410579;22;8721;-83
2022/09/10 10:01:18;;;;;;;;;3.75;2.50;;;;;;;;6382272;22;8742;-84
2022/09/10 10:03:51;;;;;;;;;3.25;1.00;;;;;;;;6383052;22;8718;-85
2022/09/10 10:06:21;;;;;;;;;6.00;2.25;;;;;;;;6383114;22;9001;-83
2022/09/10 10:09:05;;;;;;;;;3.50;3.50;;;;;;;;6382825;22;8725;-83
2022/09/10 10:11:50;;;;;;;;;3.50;2.50;;;;;;;;6381765;22;8758;-84
2022/09/10 10:14:19;;;;;;;;;3.00;3.00;;;;;;;;6382222;22;8733;-82
2022/09/10 10:16:47;;;;;;;;;3.00;2.00;;;;;;;;6411329;22;8706;-82
2022/09/10 10:19:35;;;;;;;;;6.00;6.00;;;;;;;;6382889;22;8757;-82
2022/09/10 10:22:17;;;;;;;;;4.75;4.50;;;;;;;;6390568;22;9566;-81
2022/09/10 10:24:43;;;;;;;;;4.00;3.25;;;;;;;;6411778;22;9350;-84
2022/09/10 10:27:34;;;;;;;;;3.67;2.67;;;;;;;;6384010;22;8806;-90
2022/09/10 10:30:01;;;;;;;;;3.25;1.75;;;;;;;;6381005;22;8734;-85
2022/09/10 10:32:39;;;;;;;;;3.00;3.00;;;;;;;;6385659;22;8761;-85
2022/09/10 10:35:10;;;;;;;;;3.25;3.25;;;;;;;;6414479;22;8737;-84
2022/09/10 10:37:41;;;;;;;;;3.50;2.25;;;;;;;;6381989;22;8835;-84
2022/09/10 10:40:22;;;;;;;;;2.75;2.75;;;;;;;;6410097;22;8798;-84
2022/09/10 10:42:53;;;;;;;;;5.25;4.50;;;;;;;;6381313;22;8762;-84
2022/09/10 10:45:30;;;;;;;;;5.00;4.00;;;;;;;;6381421;22;8753;-85
2022/09/10 10:48:03;;;;;;;;;3.50;3.50;;;;;;;;6384663;22;9104;-84
2022/09/10 10:50:37;;;;;;;;;4.00;4.00;;;;;;;;6410035;22;8745;-84
2022/09/10 10:53:21;;;;;;;;;4.25;3.75;;;;;;;;6411870;22;8758;-83
2022/09/10 10:55:49;;;;;;;;;4.00;3.75;;;;;;;;6385594;22;8840;-83
2022/09/10 10:58:24;;;;;;;;;3.00;3.00;;;;;;;;6410672;22;8718;-83
2022/09/10 11:01:03;;;;;;;;;3.00;3.00;;;;;;;;6381873;22;8754;-83
2022/09/10 11:03:32;;;;;;;;;3.50;3.50;;;;;;;;6411331;22;8753;-84
2022/09/10 11:06:03;;;;;;;;;5.50;4.00;;;;;;;;6410115;22;8722;-84
2022/09/10 11:08:33;;;;;;;;;4.50;2.75;;;;;;;;6382568;22;8806;-83
2022/09/10 11:11:08;;;;;;;;;4.00;3.00;;;;;;;;6381933;22;8749;-87
2022/09/10 11:13:52;;;;;;;;;3.00;3.00;;;;;;;;6382113;22;8771;-86
2022/09/10 11:16:22;;;;;;;;;4.00;3.25;;;;;;;;6411074;22;8853;-86
2022/09/10 11:19:11;;;;;;;;;4.00;4.00;;;;;;;;6410999;22;8722;-93
2022/09/10 11:21:39;;;;;;;;;3.75;3.75;;;;;;;;6410905;22;8749;-86
2022/09/10 11:24:21;;;;;;;;;3.00;3.00;;;;;;;;6411373;22;8785;-85
2022/09/10 11:27:05;;;;;;;;;3.00;3.00;;;;;;;;6411837;22;8753;-86
2022/09/10 11:29:31;;;;;;;;;6.75;4.50;;;;;;;;6412151;22;8764;-86
2022/09/10 11:31:59;;;;;;;;;4.50;3.75;;;;;;;;6411001;22;8789;-88
2022/09/10 11:34:31;;;;;;;;;4.25;4.25;;;;;;;;6411940;22;8825;-88
2022/09/10 11:37:17;;;;;;;;;4.25;4.25;;;;;;;;6411892;22;8746;-88
2022/09/10 11:39:47;;;;;;;;;4.00;3.25;;;;;;;;6385931;22;9607;-91
2022/09/10 11:42:23;;;;;;;;;5.25;5.25;;;;;;;;6383302;22;8761;-85
2022/09/10 11:44:56;;;;;;;;;5.25;5.25;;;;;;;;6407838;22;8802;-85
2022/09/10 11:47:25;;;;;;;;;6.50;4.00;;;;;;;;6410383;22;9471;-88
2022/09/10 11:50:00;;;;;;;;;5.75;4.75;;;;;;;;6383987;22;8754;-89
2022/09/10 11:52:27;;;;;;;;;3.00;2.25;;;;;;;;6382254;22;8746;-88
2022/09/10 11:54:52;;;;;;;;;4.50;4.25;;;;;;;;6412261;22;8780;-88
2022/09/10 11:57:36;;;;;;;;;5.67;5.00;;;;;;;;6382829;22;8738;-88
2022/09/10 12:00:08;;;;;;;;;6.00;5.25;;;;;;;;6412401;22;8817;-88
2022/09/10 12:03:01;;;;;;;;;3.00;3.00;;;;;;;;6414619;22;8702;-88
2022/09/10 12:05:26;;;;;;;;;5.00;5.00;;;;;;;;6386051;22;8769;-88
2022/09/10 12:08:10;;;;;;;;;5.00;5.00;;;;;;;;6387282;22;8726;-88
2022/09/10 12:10:44;;;;;;;;;5.25;5.25;;;;;;;;6418036;22;8768;-88
2022/09/10 12:13:14;;;;;;;;;5.00;5.00;;;;;;;;6421937;22;8737;-88
2022/09/10 12:15:39;;;;;;;;;4.00;4.00;;;;;;;;6392071;22;8759;-88
2022/09/10 12:18:23;;;;;;;;;4.33;4.33;;;;;;;;6420890;22;8757;-87
2022/09/10 12:20:51;;;;;;;;;4.00;4.00;;;;;;;;6383836;22;8741;-88
2022/09/10 12:23:19;;;;;;;;;6.00;5.00;;;;;;;;6418834;22;8722;-89
2022/09/10 12:25:56;;;;;;;;;3.50;3.50;;;;;;;;6385683;22;8753;-88
2022/09/10 12:28:40;;;;;;;;;3.00;3.00;;;;;;;;6412304;22;8722;-87
2022/09/10 12:31:06;;;;;;;;;3.75;3.75;;;;;;;;6382850;22;8789;-88
2022/09/10 12:33:31;;;;;;;;;4.67;3.33;;;;;;;;6412055;22;8844;-89
2022/09/10 12:35:57;;;;;;;;;4.00;2.00;;;;;;;;6381717;22;8734;-89
2022/09/10 12:38:41;;;;;;;;;3.67;2.00;;;;;;;;6383035;22;8765;-91
2022/09/10 12:41:11;;;;;;;;;1.75;1.75;;;;;;;;6412166;22;8749;-89
2022/09/10 12:43:39;;;;;;;;;1.25;1.25;;;;;;;;6382851;22;8745;-89
2022/09/10 12:46:07;;;;;;;;;2.75;2.75;;;;;;;;6411693;22;8749;-89
2022/09/10 12:48:34;;;;;;;;;1.75;1.75;;;;;;;;6383418;22;8742;-90
2022/09/10 12:51:04;;;;;;;;;2.00;1.25;;;;;;;;6411039;22;8750;-89
2022/09/10 12:53:38;;;;;;;;;1.25;1.25;;;;;;;;6382210;22;8797;-88
2022/09/10 12:56:14;;;;;;;;;2.25;1.50;;;;;;;;6381121;22;8836;-88
2022/09/10 12:58:53;;;;;;;;;3.00;3.00;;;;;;;;6380921;22;8811;-89
2022/09/10 13:01:36;;;;;;;;;4.50;3.25;;;;;;;;6380992;22;8813;-89
2022/09/10 13:04:02;;;;;;;;;1.75;1.75;;;;;;;;6380961;22;9404;-89
2022/09/10 13:06:38;;;;;;;;;2.00;2.00;;;;;;;;6410771;22;8753;-88
2022/09/10 13:09:15;;;;;;;;;2.50;2.25;;;;;;;;6383249;22;9499;-88
2022/09/10 13:11:43;;;;;;;;;4.25;2.25;;;;;;;;6382695;22;8745;-89
2022/09/10 13:14:15;;;;;;;;;1.25;1.25;;;;;;;;6410604;22;8757;-89
2022/09/10 13:16:41;;;;;;;;;1.50;1.25;;;;;;;;6382686;22;8726;-89
2022/09/10 13:19:12;;;;;;;;;3.00;2.00;;;;;;;;6382293;22;8730;-89
2022/09/10 13:21:43;;;;;;;;;1.00;1.00;;;;;;;;6383494;22;8832;-90
2022/09/10 13:24:30;;;;;;;;;1.00;1.00;;;;;;;;6382815;22;8745;-90
2022/09/10 13:27:02;;;;;;;;;1.00;1.00;;;;;;;;6382766;22;8710;-88
2022/09/10 13:29:31;;;;;;;;;2.25;1.00;;;;;;;;6382388;22;8722;-88
2022/09/10 13:32:01;;;;;;;;;2.25;2.25;;;;;;;;6413206;22;8776;-88
2022/09/10 13:34:47;;;;;;;;;2.75;2.00;;;;;;;;6413158;22;8730;-88
2022/09/10 13:37:31;;;;;;;;;3.00;3.00;;;;;;;;6412358;22;8750;-87
2022/09/10 13:40:11;;;;;;;;;2.25;2.25;;;;;;;;6385272;22;8768;-88
2022/09/10 13:42:49;;;;;;;;;3.00;3.00;;;;;;;;6385987;22;8847;-89
2022/09/10 13:45:15;;;;;;;;;5.00;4.00;;;;;;;;6390833;22;8823;-86
2022/09/10 13:47:50;;;;;;;;;2.00;2.00;;;;;;;;6420026;22;8690;-86
2022/09/10 13:50:15;;;;;;;;;3.00;2.00;;;;;;;;6391015;22;8745;-84
2022/09/10 13:52:42;;;;;;;;;2.00;2.00;;;;;;;;6412454;22;8761;-85
2022/09/10 13:55:07;;;;;;;;;3.00;1.50;;;;;;;;6411052;22;8741;-85
2022/09/10 13:57:37;;;;;;;;;2.33;2.33;;;;;;;;6381187;22;8765;-85
2022/09/10 14:00:12;;;;;;;;;3.75;2.00;;;;;;;;6411150;22;8752;-85
2022/09/10 14:02:41;;;;;;;;;3.00;1.00;;;;;;;;6380463;22;9636;-85
2022/09/10 14:05:25;;;;;;;;;3.25;3.25;;;;;;;;6410317;22;9432;-85
2022/09/10 14:07:52;;;;;;;;;1.75;1.75;;;;;;;;6411136;22;9833;-85
2022/09/10 14:10:17;;;;;;;;;2.25;2.25;;;;;;;;6382006;22;9500;-86
2022/09/10 14:12:43;;;;;;;;;1.67;1.67;;;;;;;;6409902;22;8772;-84
2022/09/10 14:15:15;;;;;;;;;3.00;2.00;;;;;;;;6410391;22;8742;-84
2022/09/10 14:17:43;;;;;;;;;1.75;1.75;;;;;;;;6409856;22;8801;-84
2022/09/10 14:20:23;;;;;;;;;2.50;1.00;;;;;;;;6381996;22;8730;-83
2022/09/10 14:22:52;;;;;;;;;2.75;1.75;;;;;;;;6381286;22;8885;-84
2022/09/10 14:25:31;;;;;;;;;1.75;0.75;;;;;;;;6381612;22;8734;-86
2022/09/10 14:28:18;;;;;;;;;2.75;2.75;;;;;;;;6410289;22;8734;-85
2022/09/10 14:30:44;;;;;;;;;1.00;1.00;;;;;;;;6410063;22;8865;-84
2022/09/10 14:33:28;;;;;;;;;1.50;1.50;;;;;;;;6380231;22;8734;-87
2022/09/10 14:35:54;;;;;;;;;2.00;1.75;;;;;;;;6381916;22;8753;-85
2022/09/10 14:38:28;;;;;;;;;2.33;2.33;;;;;;;;6410771;22;9514;-85
2022/09/10 14:40:59;;;;;;;;;2.50;2.50;;;;;;;;6381890;22;8832;-88
2022/09/10 14:43:32;;;;;;;;;0.50;0.50;;;;;;;;6381554;22;8737;-86
2022/09/10 14:45:58;;;;;;;;;1.50;1.50;;;;;;;;6380640;22;8734;-90
2022/09/10 14:48:35;;;;;;;;;3.50;3.50;;;;;;;;6411910;22;8810;-91
2022/09/10 14:51:21;;;;;;;;;1.00;1.00;;;;;;;;6382053;22;8846;-90
2022/09/10 14:53:53;;;;;;;;;2.50;2.25;;;;;;;;6376080;22;8726;-89
2022/09/10 14:56:20;;;;;;;;;1.00;1.00;;;;;;;;6410027;22;8766;-88
2022/09/10 14:58:46;;;;;;;;;2.25;1.25;;;;;;;;6380727;22;8749;-88
2022/09/10 15:01:11;;;;;;;;;1.75;1.25;;;;;;;;6380911;22;9423;-88
2022/09/10 15:03:37;;;;;;;;;3.67;2.33;;;;;;;;6410778;22;8746;-88
2022/09/10 15:06:02;;;;;;;;;3.00;3.00;;;;;;;;6381364;22;8861;-89
2022/09/10 15:08:27;;;;;;;;;1.67;1.67;;;;;;;;6413910;22;8742;-88
2022/09/10 15:10:53;;;;;;;;;1.00;1.00;;;;;;;;6385450;22;8753;-89
2022/09/10 15:13:19;;;;;;;;;0.75;0.75;;;;;;;;6383181;22;8726;-89
2022/09/10 15:15:46;;;;;;;;;1.33;1.33;;;;;;;;6414369;22;8749;-90
2022/09/10 15:18:13;;;;;;;;;3.75;2.50;;;;;;;;6420537;22;8869;-89
2022/09/10 15:20:38;;;;;;;;;1.75;1.75;;;;;;;;6391649;22;8840;-89
2022/09/10 15:23:03;;;;;;;;;1.00;1.00;;;;;;;;6420481;22;8734;-89
2022/09/10 15:25:32;;;;;;;;;2.33;1.67;;;;;;;;6386697;22;8762;-90
2022/09/10 15:27:57;;;;;;;;;2.00;2.00;;;;;;;;6381234;22;9515;-89
2022/09/10 15:30:23;;;;;;;;;2.33;1.00;;;;;;;;6379632;22;8758;-89
2022/09/10 15:32:48;;;;;;;;;1.50;1.50;;;;;;;;6381302;22;8749;-89
2022/09/10 15:35:14;;;;;;;;;3.33;2.33;;;;;;;;6381454;22;8844;-89
2022/09/10 15:37:39;;;;;;;;;3.00;2.00;;;;;;;;6381556;22;8762;-88